Skip Navigation LinksHome page > Weather > Current weather Skip Navigation Links

Current Weather

Phoenix Sky Harbor Intl, Phoenix, Ariz.

For information only: do not use for flight planning or navigation.
Latest weather
Observation time Monday, January 24, 2022 9:51 PM MST
Local time Monday, January 24, 2022 10:54 PM MST
Flight conditions Visual Meteorological Conditions
Winds
Wind speed calm
Visibility 10 mi.
Sky condition
Ceiling unlimited
Sky clear
Temperature 56°F
Dewpoint 37°F
Altimeter 29.94 in.Hg
Derived measurements
Relative humidity 49%
Density altitude 1024 ft.
Sea-level pressure 29.92 in.Hg
Remarks
Automated weather observing station with precipitation discriminator.
METAR KPHX 250451Z 00000KT 10SM CLR 13/03 A2994 RMK AO2 SLP132 T01330028

Settings

Location code

InnerDrive.Weather 4.0.6770.0 Release CLR 4.0.30319.42000
Copyright ©2018 Inner Drive Technology. All rights reserved. Portions Copyright ©1986-2018 David Braverman.

Find weather

Site navigation


Skip Navigation Links

Place info

Page info

PayPal - The safer, easier way to pay online!

Return home.

Copyright ©2022 Inner Drive Technology. Purveyors of fine, hand-crafted computer software. Page printed 2022-01-25T05:54:12 UTC.